13°C
Gosport, Hampshire, United Kingdom
Language:  English
Updated26/10/2020 09:55:00 
 

Nearby METAR Reports

 

EGHI - Southampton Wx Centre, United Kingdom
Distance from station: NW 15mi, 24km
Updated: 26-Oct-2020 09:50:00
Partly cloudy
Partly cloudy
 Wind from WSW
Wind: WSW 9 mph , 15 km/h
Temperature: 12°C
Dew Point: 8°C
Humidity: 77%
Barometer: 998 hPa
Clouds: Partly cloudy
Visibility: 6 miles , 10 km
Cloud details: Few Clouds 640 m
Partly cloudy 1372 m
2020/10/26 09:50 EGHI 260950Z 24008KT 210V280 9999 FEW021 SCT045CB 12/08 Q0998
EGHH - Bournemouth Airport, United Kingdom
Distance from station: W 30mi, 49km
Updated: 26-Oct-2020 09:50:00
Partly cloudy
Partly cloudy
 Wind from W
Wind: W 13 mph , 20 km/h
Temperature: 12°C
Dew Point: 9°C
Humidity: 82%
Barometer: 998 hPa
Clouds: Partly cloudy
Visibility: 6 miles , 10 km
Cloud details: Few Clouds 701 m
Partly cloudy 853 m
2020/10/26 09:50 EGHH 260950Z 26011KT 9999 FEW023 SCT028 12/09 Q0998
EGVP - Middle Wallop Airfield, United Kingdom
Distance from station: NW 31mi, 49km
Updated: 26-Oct-2020 09:50:00
Partly cloudy
Partly cloudy
 Wind from SSW
Wind: SSW 7 mph , 11 km/h
Temperature: 8°C
Wind Chill: 6°C
Dew Point: 8°C
Humidity: 100%
Barometer: 997 hPa
Clouds: Partly cloudy
Visibility: 6 miles , 10 km
Cloud details: Few Clouds 518 m
Partly cloudy 1402 m
2020/10/26 09:50 EGVP 260950Z 21006KT 9999 FEW017 SCT046 08/08 Q0997 RMK BLU
 
EGVO - RAF Odiham, United Kingdom
Distance from station: NNE 32mi, 52km
Updated: 26-Oct-2020 08:50:00
Mostly cloudy
Mostly cloudy
 Wind from SW
Wind: SW 15 mph , 24 km/h
Temperature: 9°C
Wind Chill: 6°C
Dew Point: 7°C
Humidity: 87%
Barometer: 997 hPa
Clouds: Mostly cloudy
Visibility: 6 miles , 10 km
Cloud details: Few Clouds 305 m
Mostly cloudy 2743 m
2020/10/26 08:50 EGVO 260850Z 22013KT 9999 FEW010 BKN090 09/07 Q0997 BLU TEMPO 7000 SHRA BKN020CB RMK BLU TEMPO WHT
EGKA - Shoreham Airport, United Kingdom
Distance from station: E 37mi, 59km
Updated: 26-Oct-2020 09:20:00
Few Clouds
Few Clouds
 Wind from WSW
Wind: WSW 10 mph , 17 km/h
Temperature: 12°C
Dew Point: 9°C
Humidity: 82%
Barometer: 998 hPa
Clouds: Few Clouds
Visibility: 6 miles , 10 km
Cloud details: Few Clouds 762 m
2020/10/26 09:20 EGKA 260920Z 25009KT 9999 FEW025 12/09 Q0998
EGDM - Boscombe Down, United Kingdom
Distance from station: NW 38mi, 61km
Updated: 26-Oct-2020 09:50:00
Mostly cloudy
Mostly cloudy
 Wind from WSW
Wind: WSW 14 mph , 22 km/h
Temperature: 10°C
Wind Chill: 7°C
Dew Point: 9°C
Humidity: 94%
Barometer: 997 hPa
Clouds: Mostly cloudy
Visibility: 6 miles , 10 km
Cloud details: Few Clouds 549 m
Mostly cloudy 1219 m
2020/10/26 09:50 EGDM 260950Z 24012KT 9999 FEW018 BKN040 10/09 Q0997 NOSIG RMK BLU BLU
 
EGLF - Farnborough, United Kingdom
Distance from station: NNE 38mi, 61km
Updated: 26-Oct-2020 09:50:00
Clear
Clear
 Wind from SW
Wind: SW 12 mph , 19 km/h
Temperature: 9°C
Wind Chill: 6°C
Dew Point: 7°C
Humidity: 87%
Barometer: 997 hPa
Clouds: Clear
Visibility: 6 miles , 10 km
2020/10/26 09:50 EGLF 260950Z AUTO 23010KT 9999 NCD 09/07 Q0997
EGKK - Gatwick Airport, United Kingdom
Distance from station: ENE 49mi, 78km
Updated: 26-Oct-2020 09:50:00
Clear
Clear
 Wind from SW
Wind: SW 10 mph , 17 km/h
Temperature: 11°C
Dew Point: 8°C
Humidity: 82%
Barometer: 997 hPa
Summary: Clear
Visibility: greater than 7 miles , 10 km
2020/10/26 09:50 EGKK 260950Z 23009KT CAVOK 11/08 Q0997
EGLL - Heathrow Airport, United Kingdom
Distance from station: NNE 57mi, 91km
Updated: 26-Oct-2020 09:50:00
Clear
Clear
 Wind from SW
Wind: SW 10 mph , 17 km/h
Temperature: 10°C
Wind Chill: 8°C
Dew Point: 7°C
Humidity: 82%
Barometer: 997 hPa
Clouds: Clear
Visibility: 6 miles , 10 km
2020/10/26 09:50 EGLL 260950Z AUTO 23009KT 9999 NCD 10/07 Q0997 NOSIG
 
EGUB - RAF Benson, United Kingdom
Distance from station: N 58mi, 93km
Updated: 26-Oct-2020 09:50:00
Partly cloudy
Partly cloudy
 Wind from SSW
Wind: SSW 13 mph , 20 km/h
Temperature: 10°C
Wind Chill: 7°C
Dew Point: 8°C
Humidity: 88%
Barometer: 996 hPa
Clouds: Partly cloudy
Visibility: 6 miles , 10 km
Cloud details: Few Clouds 762 m
Partly cloudy 1737 m
2020/10/26 09:50 EGUB 260950Z 21011KT 9999 FEW025 SCT057 10/08 Q0996 BLU TEMPO FEW010 SCT020 RMK BLU TEM
EGWU - RAF Northolt, United Kingdom
Distance from station: NNE 62mi, 99km
Updated: 26-Oct-2020 09:50:00
Partly cloudy
Partly cloudy
 Wind from SW
Wind: SW 9 mph , 15 km/h
Temperature: 11°C
Dew Point: 8°C
Humidity: 82%
Barometer: 996 hPa
Clouds: Partly cloudy
Visibility: 6 miles , 10 km
Cloud details: Few Clouds 610 m
Partly cloudy 1372 m
2020/10/26 09:50 EGWU 260950Z 23008KT 9999 FEW020 SCT045 11/08 Q0996 TEMPO 7000 SHRA BKN020CB
EGKB - Biggin Hill Airport, United Kingdom
Distance from station: NE 62mi, 100km
Updated: 26-Oct-2020 09:50:00
Few Clouds
Few Clouds
 Wind from SSW
Wind: SSW 13 mph , 20 km/h
Temperature: 10°C
Wind Chill: 7°C
Dew Point: 7°C
Humidity: 82%
Barometer: 997 hPa
Clouds: Few Clouds
Visibility: 6 miles , 10 km
Cloud details: Few Clouds 366 m
2020/10/26 09:50 EGKB 260950Z 21011KT 190V250 9999 FEW012 10/07 Q0997
 
EGDY - RNAS Yeovilton, United Kingdom
Distance from station: WNW 66mi, 107km
Updated: 26-Oct-2020 09:27:00
Light rain, Showers, Partly cloudy
Light rain, Showers, Partly cloudy
 Wind from WSW
Wind: WSW 10 mph , 17 km/h
Temperature: 12°C
Dew Point: 9°C
Humidity: 82%
Barometer: 997 hPa
Summary: Light rain, Showers
Clouds: Partly cloudy
Visibility: 4 miles , 6 km
Cloud details: Mostly cloudy 914 m
Partly cloudy 1219 m
2020/10/26 09:27 EGDY 260927Z 24009KT 6000 -SHRA BKN030TCU SCT040 12/09 Q0997 TEMPO 9999 NSW RMK WHT TEMPO BLU
EGUO - Colerne Airfield, United Kingdom
Distance from station: NW 67mi, 108km
Updated: 14-Feb-2019 22:50:00
NOT Current
Clear
Clear
 Wind from ENE
Wind: ENE 1 mph , 2 km/h
Temperature: 1°C
Dew Point: 0°C
Humidity: 93%
Barometer: 1029 hPa
Summary: Clear
Visibility: greater than 7 miles , 10 km
2019/02/14 22:50 EGUO 142250Z 06001KT CAVOK 01/00 Q1029 BLU NOSIG
EGVA - RAF Fairford, United Kingdom
Distance from station: NNW 67mi, 108km
Updated: 26-Oct-2020 09:56:00
Mostly cloudy
Mostly cloudy
 Wind from SW
Wind: SW 14 mph , 22 km/h
Temperature: 10°C
Wind Chill: 7°C
Dew Point: 9°C
Humidity: 94%
Barometer: 995.9 hPa
Clouds: Mostly cloudy
Visibility: 6 miles , 10 km
Cloud details: Mostly cloudy 792 m
Mostly cloudy 1067 m
2020/10/26 09:56 EGVA 260956Z AUTO 23012KT 9999 BKN026 BKN035 10/09 A2941 RMK AO2 CIG 026V037 SLP964 T01020085 $
 
EGVN - RAF Brize Norton, United Kingdom
Distance from station: NNW 71mi, 114km
Updated: 26-Oct-2020 09:50:00
Mostly cloudy
Mostly cloudy
 Wind from WSW
Wind: WSW 8 mph , 13 km/h
Temperature: 10°C
Wind Chill: 8°C
Dew Point: 7°C
Humidity: 82%
Barometer: 996 hPa
Clouds: Mostly cloudy
Visibility: 6 miles , 10 km
Cloud details: Partly cloudy 366 m
Mostly cloudy 1219 m
2020/10/26 09:50 EGVN 260950Z 24007KT 9999 SCT012 BKN040 10/07 Q0996 TEMPO FEW012 RMKK GRN TEMPO BLU
EGLC - London City Airport, United Kingdom
Distance from station: NE 71mi, 115km
Updated: 26-Oct-2020 09:50:00
Clear
Clear
 Wind from WSW
Wind: WSW 9 mph , 15 km/h
Temperature: 12°C
Dew Point: 7°C
Humidity: 72%
Barometer: 997 hPa
Clouds: Clear
Visibility: 6 miles , 10 km
2020/10/26 09:50 EGLC 260950Z AUTO 24008KT 9999 NCD 12/07 Q0997
EGGD - Bristol Airport, United Kingdom
Distance from station: WNW 80mi, 128km
Updated: 26-Oct-2020 09:50:00
Overcast
Overcast
 Wind from W
Wind: W 15 mph , 24 km/h
Temperature: 10°C
Wind Chill: 7°C
Dew Point: 9°C
Humidity: 94%
Barometer: 997 hPa
Clouds: Overcast
Visibility: 6 miles , 10 km
Cloud details: Partly cloudy 366 m
Overcast 671 m
2020/10/26 09:50 EGGD 260950Z AUTO 27013KT 9999 SCT012 OVC022 10/09 Q0997
 
LFRC - Cherbourg-Maupertus Airport, France
Distance from station: S 81mi, 130km
Updated: 26-Oct-2020 09:30:00
Thunderstorm
Thunderstorm
 Wind from WSW
Wind: WSW 16 mph , 26 km/h
Temperature: 10°C
Wind Chill: 7°C
Dew Point: 8°C
Humidity: 88%
Barometer: 1001 hPa
Clouds: Thunderstorm
Visibility: 6 miles , 10 km
Cloud details: Few Clouds 914 m
Mostly cloudy 1402 m
Mostly cloudy 1707 m
2020/10/26 09:30 LFRC 260930Z AUTO 25014KT 9999 FEW030/// BKN046/// BKN056/// ///TCU 10/08 Q1001 TEMPO 27025G35KT 2000 TSRA BKN020CB
EGGW - Luton Airport, United Kingdom
Distance from station: NNE 82mi, 132km
Updated: 26-Oct-2020 09:50:00
Partly cloudy
Partly cloudy
 Wind from SW
Wind: SW 13 mph , 20 km/h
Temperature: 9°C
Wind Chill: 6°C
Dew Point: 7°C
Humidity: 87%
Barometer: 996 hPa
Clouds: Partly cloudy
Visibility: 6 miles , 10 km
Cloud details: Partly cloudy 1128 m
Partly cloudy 1372 m
2020/10/26 09:50 EGGW 260950Z AUTO 22011KT 9999 SCT037 SCT045 09/07 Q0996